createdAt,value
2023-03-20T00:01:28.498Z,101300.81
2023-03-20T00:03:55.820Z,101302.50
2023-03-20T00:06:31.327Z,101301.63
2023-03-20T00:08:58.341Z,101297.25
2023-03-20T00:11:29.067Z,101298.09
2023-03-20T00:14:08.741Z,101299.81
2023-03-20T00:16:42.423Z,101293.69
2023-03-20T00:19:25.896Z,101301.50
2023-03-20T00:21:54.932Z,101302.34
2023-03-20T00:24:22.929Z,101304.88
2023-03-20T00:26:52.473Z,101300.50
2023-03-20T00:29:28.640Z,101303.06
2023-03-20T00:31:55.969Z,101307.41
2023-03-20T00:34:27.094Z,101306.47
2023-03-20T00:36:56.349Z,101306.47
2023-03-20T00:39:24.322Z,101300.34
2023-03-20T00:41:56.018Z,101302.06
2023-03-20T00:44:52.305Z,101301.16
2023-03-20T00:47:23.341Z,101290.66
2023-03-20T00:49:53.177Z,101295.91
2023-03-20T00:52:21.596Z,101293.28
2023-03-20T00:54:51.368Z,101296.72
2023-03-20T00:57:39.541Z,101295.81
2023-03-20T01:00:45.389Z,101290.47
2023-03-20T01:03:22.185Z,101302.66
2023-03-20T01:05:51.005Z,101302.63
2023-03-20T01:08:23.406Z,101306.06
2023-03-20T01:10:54.131Z,101304.28
2023-03-20T01:13:28.921Z,101299.91
2023-03-20T01:15:58.051Z,101293.75
2023-03-20T01:18:27.438Z,101291.09
2023-03-20T01:20:54.531Z,101302.41
2023-03-20T01:23:23.100Z,101297.13
2023-03-20T01:25:50.745Z,101293.63
2023-03-20T01:28:23.858Z,101301.44
2023-03-20T01:30:50.972Z,101292.72
2023-03-20T01:33:24.070Z,101296.16
2023-03-20T01:35:54.726Z,101291.78
2023-03-20T01:38:26.096Z,101297.78
2023-03-20T01:41:04.337Z,101296.00
2023-03-20T01:43:34.169Z,101308.22
2023-03-20T01:46:29.935Z,101302.97
2023-03-20T01:49:28.412Z,101305.59
2023-03-20T01:51:58.881Z,101304.72
2023-03-20T01:54:36.042Z,101305.59
2023-03-20T01:57:17.120Z,101310.81
2023-03-20T01:59:51.300Z,101304.72
2023-03-20T02:02:27.077Z,101300.38
2023-03-20T02:05:02.300Z,101313.41
2023-03-20T02:07:31.953Z,101308.19
2023-03-20T02:10:12.100Z,101308.19
2023-03-20T02:12:49.614Z,101310.81
2023-03-20T02:15:28.074Z,101317.72
2023-03-20T02:18:14.984Z,101315.09
2023-03-20T02:21:08.727Z,101311.59
2023-03-20T02:24:00.983Z,101312.44
2023-03-20T02:27:06.758Z,101318.53
2023-03-20T02:30:26.534Z,101318.50
2023-03-20T02:33:17.994Z,101322.84
2023-03-20T02:36:03.794Z,101319.38
2023-03-20T02:39:13.430Z,101311.53
2023-03-20T02:42:08.005Z,101300.19
2023-03-20T02:45:08.184Z,101308.81
2023-03-20T02:48:10.758Z,101319.28
2023-03-20T02:51:14.365Z,101301.00
2023-03-20T02:54:14.152Z,101306.19
2023-03-20T02:57:30.282Z,101305.34
2023-03-20T03:00:10.541Z,101303.59
2023-03-20T03:02:49.536Z,101303.59
2023-03-20T03:05:26.635Z,101299.25
2023-03-20T03:07:58.250Z,101307.06
2023-03-20T03:10:30.701Z,101316.63
2023-03-20T03:13:00.418Z,101316.63
2023-03-20T03:15:42.008Z,101332.22
2023-03-20T03:18:20.407Z,101322.69
2023-03-20T03:20:52.544Z,101328.78
2023-03-20T03:23:35.362Z,101328.78
2023-03-20T03:26:05.294Z,101319.22
2023-03-20T03:28:47.430Z,101329.72
2023-03-20T03:31:18.162Z,101324.50
2023-03-20T03:33:51.105Z,101323.66
2023-03-20T03:36:48.999Z,101333.22
2023-03-20T03:39:51.448Z,101324.53
2023-03-20T03:42:27.904Z,101326.28
2023-03-20T03:45:05.487Z,101341.03
2023-03-20T03:47:38.322Z,101337.59
2023-03-20T03:50:13.169Z,101346.28
2023-03-20T03:52:41.918Z,101346.28
2023-03-20T03:55:35.009Z,101347.97
2023-03-20T03:58:17.851Z,101346.16
2023-03-20T04:00:50.532Z,101350.50
2023-03-20T04:03:20.720Z,101348.69
2023-03-20T04:05:48.969Z,101346.91
2023-03-20T04:08:16.552Z,101346.88
2023-03-20T04:10:43.557Z,101338.19
2023-03-20T04:13:11.797Z,101341.59
2023-03-20T04:15:38.855Z,101354.66
2023-03-20T04:18:07.587Z,101352.03
2023-03-20T04:20:35.663Z,101343.34
2023-03-20T04:23:05.712Z,101343.34
2023-03-20T04:25:32.807Z,101347.69
2023-03-20T04:27:59.733Z,101339.03
2023-03-20T04:30:35.383Z,101344.31
2023-03-20T04:33:14.525Z,101347.81
2023-03-20T04:35:47.988Z,101346.13
2023-03-20T04:38:17.195Z,101343.66
2023-03-20T04:40:46.627Z,101347.16
2023-03-20T04:43:14.769Z,101341.06
2023-03-20T04:45:41.947Z,101349.00
2023-03-20T04:48:10.249Z,101350.72
2023-03-20T04:50:37.580Z,101345.53
2023-03-20T04:53:05.063Z,101348.19
2023-03-20T04:55:32.420Z,101345.63
2023-03-20T04:57:59.854Z,101348.25
2023-03-20T05:00:28.332Z,101344.81
2023-03-20T05:02:55.280Z,101337.00
2023-03-20T05:05:23.560Z,101341.34
2023-03-20T05:07:51.948Z,101338.75
2023-03-20T05:10:32.128Z,101343.97
2023-03-20T05:13:05.181Z,101343.09
2023-03-20T05:15:50.750Z,101347.44
2023-03-20T05:18:37.410Z,101344.84
2023-03-20T05:21:11.428Z,101341.38
2023-03-20T05:24:09.761Z,101348.38
2023-03-20T05:27:05.835Z,101351.84
2023-03-20T05:29:54.834Z,101350.16
2023-03-20T05:32:43.660Z,101349.25
2023-03-20T05:35:30.824Z,101346.53
2023-03-20T05:38:18.071Z,101353.50
2023-03-20T05:41:00.756Z,101366.56
2023-03-20T05:43:36.387Z,101360.44
2023-03-20T05:46:27.632Z,101363.91
2023-03-20T05:49:15.282Z,101368.25
2023-03-20T05:52:02.578Z,101371.75
2023-03-20T05:54:37.976Z,101365.69
2023-03-20T05:57:17.650Z,101371.78
2023-03-20T05:59:57.423Z,101343.88
2023-03-20T06:02:43.999Z,101352.59
2023-03-20T06:05:31.764Z,101358.81
2023-03-20T06:07:58.647Z,101362.38
2023-03-20T06:10:27.562Z,101376.34
2023-03-20T06:12:54.670Z,101370.28
2023-03-20T06:15:25.346Z,101367.69
2023-03-20T06:17:59.298Z,101366.00
2023-03-20T06:20:26.632Z,101366.84
2023-03-20T06:22:53.538Z,101361.69
2023-03-20T06:25:21.027Z,101366.09
2023-03-20T06:27:48.964Z,101367.00
2023-03-20T06:30:16.720Z,101380.06
2023-03-20T06:32:46.587Z,101365.31
2023-03-20T06:35:14.131Z,101373.16
2023-03-20T06:37:45.380Z,101364.50
2023-03-20T06:40:18.396Z,101364.47
2023-03-20T06:42:45.764Z,101367.16
2023-03-20T06:45:13.295Z,101367.16
2023-03-20T06:48:00.930Z,101375.84
2023-03-20T06:50:28.382Z,101368.06
2023-03-20T06:52:57.884Z,101371.56
2023-03-20T06:55:49.398Z,101367.25
2023-03-20T06:58:16.714Z,101369.03
2023-03-20T07:00:45.025Z,101365.56
2023-03-20T07:03:12.749Z,101371.69
2023-03-20T07:05:40.397Z,101363.00
2023-03-20T07:08:09.817Z,101368.28
2023-03-20T07:10:37.939Z,101364.81
2023-03-20T07:13:05.887Z,101364.84
2023-03-20T07:15:34.605Z,101370.09
2023-03-20T07:18:02.010Z,101363.16
2023-03-20T07:20:28.940Z,101372.84
2023-03-20T07:22:55.929Z,101377.25
2023-03-20T07:25:35.671Z,101384.25
2023-03-20T07:28:08.935Z,101376.41
2023-03-20T07:30:38.469Z,101383.38
2023-03-20T07:33:06.469Z,101390.38
2023-03-20T07:35:34.748Z,101391.22
2023-03-20T07:38:02.234Z,101393.00
2023-03-20T07:40:31.166Z,101394.72
2023-03-20T07:43:06.019Z,101399.09
2023-03-20T07:45:50.779Z,101399.13
2023-03-20T07:48:19.623Z,101403.47
2023-03-20T07:50:46.615Z,101407.84
2023-03-20T07:53:13.668Z,101400.06
2023-03-20T07:55:40.697Z,101401.78
2023-03-20T07:58:10.485Z,101396.56
2023-03-20T08:00:37.709Z,101393.97
2023-03-20T08:03:04.742Z,101395.72
2023-03-20T08:05:32.059Z,101402.69
2023-03-20T08:07:59.409Z,101404.41
2023-03-20T08:10:26.536Z,101398.34
2023-03-20T08:12:53.534Z,101398.31
2023-03-20T08:15:20.439Z,101398.31
2023-03-20T08:17:47.628Z,101404.47
2023-03-20T08:20:17.019Z,101405.34
2023-03-20T08:22:47.155Z,101407.94
2023-03-20T08:25:14.637Z,101398.38
2023-03-20T08:27:41.717Z,101402.75
2023-03-20T08:30:09.640Z,101395.81
2023-03-20T08:32:37.699Z,101402.81
2023-03-20T08:35:05.128Z,101405.47
2023-03-20T08:37:32.087Z,101402.00
2023-03-20T08:39:58.979Z,101408.09
2023-03-20T08:42:25.838Z,101383.66
2023-03-20T08:44:52.737Z,101408.97
2023-03-20T08:47:19.721Z,101409.88
2023-03-20T08:49:47.115Z,101407.28
2023-03-20T08:52:14.065Z,101402.06
2023-03-20T08:54:41.109Z,101409.91
2023-03-20T08:57:08.001Z,101404.72
2023-03-20T08:59:34.936Z,101408.22
2023-03-20T09:02:01.909Z,101403.88
2023-03-20T09:04:29.022Z,101403.00
2023-03-20T09:06:56.133Z,101403.88
2023-03-20T09:09:29.240Z,101404.78
2023-03-20T09:11:57.403Z,101401.28
2023-03-20T09:14:26.203Z,101413.50
2023-03-20T09:16:53.342Z,101407.41
2023-03-20T09:19:20.547Z,101407.44
2023-03-20T09:21:47.725Z,101413.56
2023-03-20T09:24:14.866Z,101411.81
2023-03-20T09:26:41.838Z,101416.22
2023-03-20T09:29:08.807Z,101414.47
2023-03-20T09:31:35.820Z,101423.22
2023-03-20T09:34:03.046Z,101410.16
2023-03-20T09:36:30.224Z,101413.59
2023-03-20T09:38:57.141Z,101423.19
2023-03-20T09:41:28.322Z,101419.69
2023-03-20T09:44:14.058Z,101419.63
2023-03-20T09:47:21.591Z,101430.03
2023-03-20T09:50:02.114Z,101437.00
2023-03-20T09:52:35.188Z,101442.22
2023-03-20T09:55:28.094Z,101439.59
2023-03-20T09:57:59.189Z,101440.47
2023-03-20T10:00:29.168Z,101440.41
2023-03-20T10:03:02.966Z,101432.53
2023-03-20T10:05:43.166Z,101432.53
2023-03-20T10:08:17.057Z,101436.03
2023-03-20T10:10:59.787Z,101432.53
2023-03-20T10:13:47.636Z,101434.28
2023-03-20T10:17:07.726Z,101425.59
2023-03-20T10:19:44.664Z,101429.97
2023-03-20T10:22:33.442Z,101422.13
2023-03-20T10:25:16.871Z,101428.22
2023-03-20T10:27:50.689Z,101418.66
2023-03-20T10:30:36.602Z,101428.25
2023-03-20T10:33:55.540Z,101430.03
2023-03-20T10:36:47.016Z,101420.44
2023-03-20T10:39:25.980Z,101421.28
2023-03-20T10:42:02.174Z,101417.84
2023-03-20T10:44:36.391Z,101417.00
2023-03-20T10:47:09.888Z,101416.97
2023-03-20T10:49:53.822Z,101413.50
2023-03-20T10:52:26.997Z,101416.13
2023-03-20T10:55:01.473Z,101419.59
2023-03-20T10:57:33.348Z,101427.47
2023-03-20T11:00:00.849Z,101428.31
2023-03-20T11:02:32.259Z,101429.19
2023-03-20T11:05:58.602Z,101437.00
2023-03-20T11:08:39.620Z,101429.16
2023-03-20T11:11:06.688Z,101426.53
2023-03-20T11:13:40.312Z,101425.69
2023-03-20T11:16:29.642Z,101437.03
2023-03-20T11:18:56.746Z,101432.66
2023-03-20T11:21:28.123Z,101428.31
2023-03-20T11:23:55.496Z,101430.97
2023-03-20T11:26:37.047Z,101437.03
2023-03-20T11:29:08.334Z,101431.75
2023-03-20T11:31:40.914Z,101430.03
2023-03-20T11:34:10.932Z,101430.00
2023-03-20T11:36:41.199Z,101421.25
2023-03-20T11:39:27.334Z,101422.13
2023-03-20T11:41:57.017Z,101413.38
2023-03-20T11:44:33.113Z,101413.34
2023-03-20T11:47:18.472Z,101412.44
2023-03-20T11:49:50.505Z,101417.66
2023-03-20T11:52:23.239Z,101412.41
2023-03-20T11:54:57.883Z,101399.31
2023-03-20T11:57:42.686Z,101409.78
2023-03-20T12:00:15.625Z,101412.38
2023-03-20T12:02:44.775Z,101413.28
2023-03-20T12:05:33.740Z,101409.00
2023-03-20T12:08:16.681Z,101409.94
2023-03-20T12:10:50.599Z,101398.66
2023-03-20T12:13:25.020Z,101398.72
2023-03-20T12:16:01.029Z,101400.50
2023-03-20T12:18:41.937Z,101397.88
2023-03-20T12:21:22.388Z,101397.88
2023-03-20T12:23:56.952Z,101399.63
2023-03-20T12:26:42.490Z,101395.28
2023-03-20T12:29:31.687Z,101403.16
2023-03-20T12:32:10.862Z,101397.94
2023-03-20T12:35:05.079Z,101406.66
2023-03-20T12:37:32.627Z,101394.50
2023-03-20T12:40:01.243Z,101389.31
2023-03-20T12:42:51.192Z,101388.44
2023-03-20T12:45:34.084Z,101393.66
2023-03-20T12:48:22.454Z,101379.66
2023-03-20T12:51:13.553Z,101389.25
2023-03-20T12:54:07.625Z,101385.75
2023-03-20T12:57:36.890Z,101383.09
2023-03-20T13:00:23.084Z,101383.03
2023-03-20T13:03:06.291Z,101380.44
2023-03-20T13:05:47.528Z,101381.28
2023-03-20T13:09:20.531Z,101386.53
2023-03-20T13:12:19.281Z,101382.16
2023-03-20T13:15:20.689Z,101383.06
2023-03-20T13:18:12.626Z,101382.22
2023-03-20T13:20:56.137Z,101367.38
2023-03-20T13:23:39.407Z,101374.38
2023-03-20T13:26:28.173Z,101372.59
2023-03-20T13:29:27.100Z,101374.31
2023-03-20T13:32:28.348Z,101376.88
2023-03-20T13:35:25.204Z,101389.94
2023-03-20T13:38:00.166Z,101382.09
2023-03-20T13:40:40.549Z,101384.66
2023-03-20T13:43:57.178Z,101382.91
2023-03-20T13:46:34.438Z,101385.50
2023-03-20T13:49:37.793Z,101381.94
2023-03-20T13:52:29.807Z,101384.53
2023-03-20T13:55:20.993Z,101375.78
2023-03-20T13:58:36.875Z,101379.25
2023-03-20T14:01:47.568Z,101359.16
2023-03-20T14:04:20.483Z,101366.16
2023-03-20T14:06:56.874Z,101354.91
2023-03-20T14:09:34.812Z,101355.81
2023-03-20T14:12:13.317Z,101355.00
2023-03-20T14:14:46.822Z,101333.25
2023-03-20T14:17:43.894Z,101335.91
2023-03-20T14:20:34.977Z,101332.47
2023-03-20T14:23:02.880Z,101330.75
2023-03-20T14:25:40.439Z,101322.94
2023-03-20T14:28:13.458Z,101333.41
2023-03-20T14:30:50.738Z,101337.81
2023-03-20T14:33:17.602Z,101335.25
2023-03-20T14:35:49.682Z,101344.84
2023-03-20T14:38:39.576Z,101336.13
2023-03-20T14:41:22.217Z,101334.38
2023-03-20T14:44:06.968Z,101333.50
2023-03-20T14:46:42.812Z,101336.13
2023-03-20T14:49:42.930Z,101336.13
2023-03-20T14:52:34.951Z,101336.97
2023-03-20T14:55:19.806Z,101341.34
2023-03-20T14:57:56.165Z,101340.47
2023-03-20T15:00:26.314Z,101343.97
2023-03-20T15:03:08.270Z,101341.31
2023-03-20T15:05:38.229Z,101338.66
2023-03-20T15:08:22.402Z,101344.78
2023-03-20T15:10:56.931Z,101346.53
2023-03-20T15:13:26.620Z,101343.03
2023-03-20T15:16:07.013Z,101342.13
2023-03-20T15:19:09.193Z,101344.75
2023-03-20T15:21:41.790Z,101344.72
2023-03-20T15:24:18.015Z,101340.34
2023-03-20T15:26:44.913Z,101348.19
2023-03-20T15:29:16.980Z,101338.59
2023-03-20T15:31:43.945Z,101336.88
2023-03-20T15:34:22.106Z,101335.09
2023-03-20T15:36:50.989Z,101345.53
2023-03-20T15:39:26.150Z,101349.03
2023-03-20T15:41:59.508Z,101346.38
2023-03-20T15:44:38.649Z,101339.41
2023-03-20T15:47:16.825Z,101354.19
2023-03-20T15:49:49.348Z,101337.63
2023-03-20T15:52:33.858Z,101341.97
2023-03-20T15:55:23.693Z,101348.91
2023-03-20T15:57:53.990Z,101347.19
2023-03-20T16:00:39.702Z,101357.63
2023-03-20T16:03:13.782Z,101355.00
2023-03-20T16:05:45.014Z,101350.63
2023-03-20T16:08:33.336Z,101352.34
2023-03-20T16:11:21.942Z,101353.19
2023-03-20T16:13:51.574Z,101357.50
2023-03-20T16:16:22.033Z,101350.53
2023-03-20T16:18:49.630Z,101353.09
2023-03-20T16:21:27.465Z,101347.88
2023-03-20T16:23:57.241Z,101350.47
2023-03-20T16:26:26.119Z,101361.78
2023-03-20T16:28:57.436Z,101362.66
2023-03-20T16:31:36.611Z,101356.56
2023-03-20T16:34:12.139Z,101353.94
2023-03-20T16:36:39.385Z,101353.06
2023-03-20T16:39:18.395Z,101354.78
2023-03-20T16:41:46.591Z,101364.38
2023-03-20T16:44:23.273Z,101360.88
2023-03-20T16:47:01.775Z,101356.53
2023-03-20T16:49:37.207Z,101359.16
2023-03-20T16:52:12.422Z,101350.44
2023-03-20T16:54:39.722Z,101351.34
2023-03-20T16:57:15.767Z,101343.50
2023-03-20T16:59:42.759Z,101356.56
2023-03-20T17:02:25.094Z,101349.59
2023-03-20T17:05:02.714Z,101352.22
2023-03-20T17:07:30.950Z,101339.09
2023-03-20T17:10:18.102Z,101347.84
2023-03-20T17:12:48.154Z,101352.19
2023-03-20T17:15:21.660Z,101360.00
2023-03-20T17:17:48.736Z,101345.22
2023-03-20T17:20:21.785Z,101340.81
2023-03-20T17:22:49.408Z,101350.38
2023-03-20T17:25:16.582Z,101347.72
2023-03-20T17:27:45.298Z,101355.56
2023-03-20T17:30:25.012Z,101358.13
2023-03-20T17:32:52.111Z,101359.84
2023-03-20T17:35:19.317Z,101366.78
2023-03-20T17:37:46.515Z,101364.16
2023-03-20T17:40:22.593Z,101365.84
2023-03-20T17:42:49.545Z,101376.31
2023-03-20T17:45:20.501Z,101374.53
2023-03-20T17:47:47.814Z,101376.22
2023-03-20T17:50:24.511Z,101375.31
2023-03-20T17:52:51.700Z,101387.59
2023-03-20T17:55:18.632Z,101390.19
2023-03-20T17:57:45.897Z,101381.50
2023-03-20T18:00:23.634Z,101384.97
2023-03-20T18:02:51.188Z,101384.09
2023-03-20T18:05:18.237Z,101380.56
2023-03-20T18:07:45.175Z,101379.75
2023-03-20T18:10:25.264Z,101383.19
2023-03-20T18:12:52.171Z,101383.19
2023-03-20T18:15:19.060Z,101380.56
2023-03-20T18:17:45.961Z,101384.03
2023-03-20T18:20:28.193Z,101364.81
2023-03-20T18:22:55.315Z,101362.16
2023-03-20T18:25:23.032Z,101375.31
2023-03-20T18:27:50.329Z,101377.03
2023-03-20T18:30:27.157Z,101388.34
2023-03-20T18:32:54.081Z,101383.13
2023-03-20T18:35:21.313Z,101389.19
2023-03-20T18:37:48.192Z,101397.91
2023-03-20T18:40:32.303Z,101394.41
2023-03-20T18:42:59.275Z,101394.41
2023-03-20T18:45:28.810Z,101394.41
2023-03-20T18:47:57.103Z,101384.81
2023-03-20T18:50:37.663Z,101393.47
2023-03-20T18:53:06.719Z,101401.31
2023-03-20T18:55:35.168Z,101397.84
2023-03-20T18:58:03.923Z,101394.31
2023-03-20T19:00:40.352Z,101406.47
2023-03-20T19:03:08.960Z,101399.50
2023-03-20T19:05:36.313Z,101407.28
2023-03-20T19:08:04.005Z,101402.06
2023-03-20T19:10:38.768Z,101406.41
2023-03-20T19:13:07.554Z,101404.66
2023-03-20T19:15:36.696Z,101407.25
2023-03-20T19:18:07.316Z,101399.34
2023-03-20T19:20:48.171Z,101400.25
2023-03-20T19:23:20.304Z,101406.28
2023-03-20T19:25:50.924Z,101406.28
2023-03-20T19:28:38.551Z,101406.28
2023-03-20T19:31:06.709Z,101401.06
2023-03-20T19:33:34.321Z,101401.06
2023-03-20T19:36:04.190Z,101405.44
2023-03-20T19:38:32.435Z,101410.63
2023-03-20T19:41:00.204Z,101398.41
2023-03-20T19:43:28.959Z,101403.63
2023-03-20T19:45:59.092Z,101403.63
2023-03-20T19:48:46.176Z,101395.78
2023-03-20T19:51:23.320Z,101399.25
2023-03-20T19:53:51.145Z,101398.38
2023-03-20T19:56:19.982Z,101393.16
2023-03-20T19:58:47.630Z,101397.53
2023-03-20T20:01:21.875Z,101402.75
2023-03-20T20:03:50.577Z,101400.16
2023-03-20T20:06:20.092Z,101395.81
2023-03-20T20:08:49.551Z,101387.13
2023-03-20T20:11:21.319Z,101401.91
2023-03-20T20:14:05.527Z,101403.69
2023-03-20T20:16:39.766Z,101401.91
2023-03-20T20:19:07.142Z,101404.63
2023-03-20T20:24:21.785Z,101406.31
2023-03-20T20:26:55.229Z,101407.16
2023-03-20T20:29:26.869Z,101408.09
2023-03-20T20:31:53.923Z,101408.09
2023-03-20T20:39:54.851Z,101417.69
2023-03-20T20:42:22.741Z,101414.19
2023-03-20T20:44:49.752Z,101414.22
2023-03-20T20:47:17.234Z,101409.81
2023-03-20T20:49:46.822Z,101403.72
2023-03-20T20:52:15.694Z,101399.38
2023-03-20T20:54:42.661Z,101409.78
2023-03-20T20:57:10.881Z,101406.28
2023-03-20T20:59:38.395Z,101408.00
2023-03-20T21:02:10.678Z,101414.97
2023-03-20T21:04:42.550Z,101413.22
2023-03-20T21:07:13.583Z,101404.50
2023-03-20T21:09:41.080Z,101413.19
2023-03-20T21:12:10.603Z,101410.59
2023-03-20T21:14:38.078Z,101401.00
2023-03-20T21:17:06.917Z,101393.09
2023-03-20T21:19:37.859Z,101414.84
2023-03-20T21:22:06.780Z,101413.13
2023-03-20T21:24:35.206Z,101413.13
2023-03-20T21:27:06.828Z,101417.47
2023-03-20T21:29:34.482Z,101404.38
2023-03-20T21:32:01.465Z,101409.63
2023-03-20T21:34:29.157Z,101407.91
2023-03-20T21:36:57.772Z,101414.84
2023-03-20T21:39:28.409Z,101413.13
2023-03-20T21:41:55.340Z,101406.16
2023-03-20T21:45:01.035Z,101408.72
2023-03-20T21:48:01.001Z,101414.78
2023-03-20T21:53:18.136Z,101416.47
2023-03-20T21:56:31.003Z,101410.38
2023-03-20T22:01:58.320Z,101411.19
2023-03-20T22:04:54.912Z,101414.66
2023-03-20T22:07:36.050Z,101407.69
2023-03-20T22:18:28.716Z,101421.59
2023-03-20T22:21:22.460Z,101412.00
2023-03-20T22:24:20.423Z,101408.53
2023-03-20T22:27:18.847Z,101409.28
2023-03-20T22:32:35.219Z,101406.75
2023-03-20T22:38:17.476Z,101411.13
2023-03-20T22:41:49.669Z,101421.56
2023-03-20T22:44:02.415Z,101418.09
2023-03-20T22:46:03.391Z,101424.16
2023-03-20T22:48:32.745Z,101413.75
2023-03-20T22:50:59.611Z,101417.22
2023-03-20T22:53:26.594Z,101417.25
2023-03-20T22:55:53.718Z,101415.47
2023-03-20T22:58:20.652Z,101411.13
2023-03-20T23:00:47.818Z,101418.13
2023-03-20T23:03:25.662Z,101419.84
2023-03-20T23:06:23.397Z,101412.00
2023-03-20T23:08:55.532Z,101411.16
2023-03-20T23:11:25.329Z,101403.31
2023-03-20T23:13:52.886Z,101409.41
2023-03-20T23:16:20.060Z,101407.69
2023-03-20T23:18:47.019Z,101411.19
2023-03-20T23:21:13.921Z,101400.75
2023-03-20T23:23:40.817Z,101404.22
2023-03-20T23:26:11.571Z,101409.41
2023-03-20T23:28:40.964Z,101408.59
2023-03-20T23:31:12.253Z,101405.09
2023-03-20T23:33:39.947Z,101408.63
2023-03-20T23:36:19.003Z,101404.25
2023-03-20T23:38:54.510Z,101406.84
2023-03-20T23:41:36.616Z,101410.34
2023-03-20T23:44:08.358Z,101404.28
2023-03-20T23:46:35.535Z,101393.78
2023-03-20T23:49:02.443Z,101396.41
2023-03-20T23:51:29.711Z,101401.63
2023-03-20T23:53:56.597Z,101400.75
2023-03-20T23:56:23.640Z,101407.75
2023-03-20T23:58:58.299Z,101406.00
